createdAt,value
2023-04-15T00:01:56.408Z,67.34
2023-04-15T00:04:26.877Z,67.23
2023-04-15T00:06:57.282Z,67.42
2023-04-15T00:09:27.661Z,67.50
2023-04-15T00:11:57.906Z,67.39
2023-04-15T00:14:28.637Z,67.21
2023-04-15T00:16:59.770Z,66.90
2023-04-15T00:19:30.173Z,66.74
2023-04-15T00:22:03.912Z,66.61
2023-04-15T00:24:37.299Z,66.93
2023-04-15T00:27:08.077Z,66.81
2023-04-15T00:29:38.435Z,67.14
2023-04-15T00:32:09.068Z,67.01
2023-04-15T00:34:39.658Z,66.54
2023-04-15T00:37:12.222Z,66.76
2023-04-15T00:39:43.227Z,66.97
2023-04-15T00:42:14.455Z,66.87
2023-04-15T00:44:45.151Z,66.94
2023-04-15T00:47:16.285Z,66.97
2023-04-15T00:49:46.291Z,66.97
2023-04-15T00:52:16.742Z,67.08
2023-04-15T00:54:47.081Z,67.08
2023-04-15T00:57:17.524Z,67.17
2023-04-15T00:59:47.884Z,67.40
2023-04-15T01:02:18.855Z,67.39
2023-04-15T01:04:49.528Z,67.59
2023-04-15T01:07:19.880Z,67.52
2023-04-15T01:09:50.614Z,67.45
2023-04-15T01:12:23.017Z,67.61
2023-04-15T01:14:53.909Z,67.67
2023-04-15T01:17:24.073Z,67.45
2023-04-15T01:19:54.754Z,67.52
2023-04-15T01:22:25.281Z,67.73
2023-04-15T01:25:04.734Z,68.25
2023-04-15T01:27:36.475Z,67.84
2023-04-15T01:30:07.753Z,67.83
2023-04-15T01:32:38.197Z,67.60
2023-04-15T01:35:09.090Z,67.70
2023-04-15T01:37:40.059Z,67.55
2023-04-15T01:40:10.995Z,67.02
2023-04-15T01:42:41.254Z,67.40
2023-04-15T01:45:12.500Z,67.58
2023-04-15T01:47:42.967Z,67.38
2023-04-15T01:50:13.781Z,67.60
2023-04-15T01:52:44.215Z,68.12
2023-04-15T01:55:16.516Z,68.45
2023-04-15T01:57:49.067Z,68.29
2023-04-15T02:00:20.228Z,68.38
2023-04-15T02:02:50.495Z,68.68
2023-04-15T02:05:20.928Z,68.43
2023-04-15T02:07:51.885Z,68.61
2023-04-15T02:10:22.159Z,68.82
2023-04-15T02:12:52.281Z,68.97
2023-04-15T02:15:22.821Z,68.79
2023-04-15T02:17:54.958Z,68.74
2023-04-15T02:20:25.985Z,68.96
2023-04-15T02:22:56.461Z,69.11
2023-04-15T02:25:27.260Z,69.26
2023-04-15T02:28:00.735Z,69.21
2023-04-15T02:30:31.095Z,69.25
2023-04-15T02:33:05.860Z,68.91
2023-04-15T02:35:36.067Z,69.21
2023-04-15T02:38:14.146Z,68.88
2023-04-15T02:40:47.092Z,68.70
2023-04-15T02:43:17.470Z,68.64
2023-04-15T02:45:49.715Z,68.41
2023-04-15T02:48:21.949Z,68.58
2023-04-15T02:50:52.399Z,68.52
2023-04-15T02:53:23.264Z,68.78
2023-04-15T02:55:54.024Z,68.92
2023-04-15T02:58:24.367Z,68.92
2023-04-15T03:00:54.695Z,69.11
2023-04-15T03:03:26.664Z,68.78
2023-04-15T03:05:57.120Z,68.16
2023-04-15T03:08:28.001Z,68.27
2023-04-15T03:11:03.637Z,67.89
2023-04-15T03:13:36.272Z,67.94
2023-04-15T03:16:14.102Z,67.83
2023-04-15T03:18:45.554Z,67.84
2023-04-15T03:21:16.326Z,67.47
2023-04-15T03:23:48.485Z,67.73
2023-04-15T03:26:33.050Z,67.63
2023-04-15T03:29:12.580Z,67.21
2023-04-15T03:31:44.004Z,67.21
2023-04-15T03:34:17.845Z,67.06
2023-04-15T03:36:53.432Z,67.19
2023-04-15T03:39:25.170Z,68.15
2023-04-15T03:41:55.793Z,67.61
2023-04-15T03:44:26.171Z,67.84
2023-04-15T03:46:57.089Z,67.27
2023-04-15T03:49:27.218Z,67.20
2023-04-15T03:51:58.650Z,66.78
2023-04-15T03:54:29.093Z,66.51
2023-04-15T03:57:00.304Z,66.70
2023-04-15T03:59:30.822Z,66.68
2023-04-15T04:02:01.169Z,67.05
2023-04-15T04:04:31.650Z,67.34
2023-04-15T04:07:02.108Z,67.16
2023-04-15T04:10:24.010Z,67.32
2023-04-15T04:12:54.518Z,66.91
2023-04-15T04:15:24.827Z,67.23
2023-04-15T04:17:54.952Z,66.93
2023-04-15T04:20:25.177Z,66.98
2023-04-15T04:22:55.313Z,66.64
2023-04-15T04:25:25.623Z,66.74
2023-04-15T04:27:56.127Z,66.74
2023-04-15T04:30:26.456Z,66.27
2023-04-15T04:32:56.835Z,66.45
2023-04-15T04:35:27.178Z,65.86
2023-04-15T04:37:57.556Z,65.19
2023-04-15T04:40:28.238Z,64.60
2023-04-15T04:42:58.717Z,64.68
2023-04-15T04:45:29.580Z,64.81
2023-04-15T04:48:00.135Z,64.51
2023-04-15T04:50:30.383Z,64.49
2023-04-15T04:53:01.131Z,64.40
2023-04-15T04:55:31.470Z,64.46
2023-04-15T04:58:01.835Z,64.79
2023-04-15T05:00:32.761Z,64.81
2023-04-15T05:03:03.655Z,64.67
2023-04-15T05:05:34.046Z,64.75
2023-04-15T05:08:04.408Z,63.95
2023-04-15T05:10:34.699Z,64.01
2023-04-15T05:13:05.061Z,63.93
2023-04-15T05:15:47.417Z,63.87
2023-04-15T05:18:17.537Z,63.78
2023-04-15T05:20:47.655Z,63.49
2023-04-15T05:23:19.064Z,63.20
2023-04-15T05:25:49.365Z,63.15
2023-04-15T05:28:20.023Z,63.39
2023-04-15T05:30:50.450Z,63.08
2023-04-15T05:33:20.752Z,63.57
2023-04-15T05:35:51.065Z,63.62
2023-04-15T05:38:21.514Z,63.46
2023-04-15T05:40:51.812Z,63.52
2023-04-15T05:43:21.943Z,63.17
2023-04-15T05:45:55.622Z,63.06
2023-04-15T05:48:28.839Z,63.06
2023-04-15T05:50:59.092Z,63.01
2023-04-15T05:53:29.649Z,63.13
2023-04-15T05:55:59.689Z,63.01
2023-04-15T05:58:30.071Z,62.84
2023-04-15T06:01:00.535Z,62.63
2023-04-15T06:03:31.035Z,62.50
2023-04-15T06:06:01.381Z,62.67
2023-04-15T06:08:31.954Z,62.34
2023-04-15T06:11:02.289Z,62.34
2023-04-15T06:13:32.818Z,62.08
2023-04-15T06:16:04.988Z,61.40
2023-04-15T06:18:35.475Z,61.20
2023-04-15T06:21:05.895Z,61.09
2023-04-15T06:23:39.820Z,60.97
2023-04-15T06:26:10.909Z,61.15
2023-04-15T06:28:41.168Z,60.79
2023-04-15T06:31:11.587Z,60.78
2023-04-15T06:33:42.377Z,61.00
2023-04-15T06:36:12.699Z,60.77
2023-04-15T06:38:43.164Z,61.07
2023-04-15T06:41:13.556Z,60.39
2023-04-15T06:43:43.913Z,60.44
2023-04-15T06:46:14.339Z,60.50
2023-04-15T06:48:44.853Z,60.67
2023-04-15T06:51:15.092Z,60.24
2023-04-15T06:53:46.409Z,60.53
2023-04-15T06:56:16.684Z,60.24
2023-04-15T06:58:52.529Z,60.32
2023-04-15T07:01:32.321Z,60.51
2023-04-15T07:04:02.873Z,60.49
2023-04-15T07:06:33.595Z,60.91
2023-04-15T07:09:04.410Z,60.73
2023-04-15T07:11:34.996Z,60.62
2023-04-15T07:14:05.841Z,60.76
2023-04-15T07:16:36.203Z,61.02
2023-04-15T07:19:06.496Z,60.32
2023-04-15T07:21:36.777Z,60.12
2023-04-15T07:24:07.270Z,60.34
2023-04-15T07:26:37.529Z,60.48
2023-04-15T07:29:08.470Z,60.67
2023-04-15T07:31:39.891Z,60.85
2023-04-15T07:34:10.469Z,60.60
2023-04-15T07:36:42.226Z,60.02
2023-04-15T07:39:12.603Z,60.12
2023-04-15T07:41:43.316Z,60.34
2023-04-15T07:44:14.013Z,59.73
2023-04-15T07:46:44.284Z,59.73
2023-04-15T07:49:14.716Z,59.68
2023-04-15T07:51:44.992Z,59.56
2023-04-15T07:54:15.216Z,59.58
2023-04-15T07:56:45.602Z,59.58
2023-04-15T07:59:17.871Z,59.81
2023-04-15T08:01:49.086Z,59.70
2023-04-15T08:04:19.920Z,59.49
2023-04-15T08:06:52.212Z,59.48
2023-04-15T08:09:22.569Z,58.72
2023-04-15T08:11:53.831Z,58.75
2023-04-15T08:14:24.632Z,58.65
2023-04-15T08:16:54.926Z,58.82
2023-04-15T08:19:25.455Z,58.90
2023-04-15T08:21:56.190Z,58.60
2023-04-15T08:24:28.731Z,58.42
2023-04-15T08:26:59.967Z,58.30
2023-04-15T08:29:30.921Z,58.65
2023-04-15T08:32:06.361Z,58.26
2023-04-15T08:34:37.240Z,57.85
2023-04-15T08:37:07.445Z,58.13
2023-04-15T08:39:37.758Z,57.77
2023-04-15T08:42:14.316Z,57.47
2023-04-15T08:44:47.202Z,57.26
2023-04-15T08:47:19.069Z,57.33
2023-04-15T08:49:55.834Z,57.00
2023-04-15T08:52:31.033Z,56.96
2023-04-15T08:55:04.873Z,57.27
2023-04-15T08:57:36.371Z,56.83
2023-04-15T09:00:07.128Z,57.02
2023-04-15T09:02:38.551Z,56.65
2023-04-15T09:05:10.459Z,55.92
2023-04-15T09:07:41.147Z,55.91
2023-04-15T09:10:13.124Z,55.25
2023-04-15T09:12:43.445Z,55.70
2023-04-15T09:15:18.011Z,55.22
2023-04-15T09:17:50.380Z,55.46
2023-04-15T09:20:23.800Z,55.53
2023-04-15T09:22:55.079Z,55.23
2023-04-15T09:25:32.207Z,55.40
2023-04-15T09:28:05.272Z,54.79
2023-04-15T09:30:36.025Z,54.51
2023-04-15T09:33:10.600Z,54.50
2023-04-15T09:35:40.960Z,54.89
2023-04-15T09:38:13.258Z,55.04
2023-04-15T09:40:44.928Z,55.14
2023-04-15T09:43:19.785Z,54.39
2023-04-15T09:45:57.599Z,54.42
2023-04-15T09:48:33.633Z,54.28
2023-04-15T09:51:04.896Z,54.23
2023-04-15T09:53:38.933Z,54.50
2023-04-15T09:56:11.274Z,54.27
2023-04-15T09:58:41.789Z,54.03
2023-04-15T10:01:13.905Z,54.28
2023-04-15T10:03:45.143Z,53.84
2023-04-15T10:06:35.527Z,53.79
2023-04-15T10:09:05.917Z,53.75
2023-04-15T10:11:37.901Z,53.46
2023-04-15T10:14:09.992Z,53.89
2023-04-15T10:16:45.574Z,54.01
2023-04-15T10:19:18.698Z,54.06
2023-04-15T10:21:49.535Z,54.01
2023-04-15T10:24:23.166Z,54.17
2023-04-15T10:26:55.231Z,54.07
2023-04-15T10:29:29.722Z,54.12
2023-04-15T10:32:03.056Z,54.36
2023-04-15T10:34:37.818Z,54.61
2023-04-15T10:37:08.251Z,54.77
2023-04-15T10:39:46.764Z,54.55
2023-04-15T10:42:19.723Z,54.90
2023-04-15T10:44:55.500Z,54.91
2023-04-15T10:47:26.688Z,54.82
2023-04-15T10:50:01.000Z,54.86
2023-04-15T10:52:32.173Z,54.66
2023-04-15T10:55:13.926Z,54.53
2023-04-15T10:57:45.787Z,54.99
2023-04-15T11:00:20.514Z,54.68
2023-04-15T11:03:10.455Z,54.75
2023-04-15T11:05:54.130Z,55.09
2023-04-15T11:08:58.626Z,54.75
2023-04-15T11:12:07.523Z,54.69
2023-04-15T11:14:42.730Z,54.53
2023-04-15T11:17:13.115Z,54.28
2023-04-15T11:19:43.764Z,53.99
2023-04-15T11:22:15.050Z,54.33
2023-04-15T11:24:52.963Z,54.46
2023-04-15T11:27:26.932Z,54.95
2023-04-15T11:29:57.256Z,55.30
2023-04-15T11:32:27.614Z,55.08
2023-04-15T11:34:58.063Z,54.86
2023-04-15T11:37:32.797Z,54.81
2023-04-15T11:40:06.126Z,54.61
2023-04-15T11:42:48.612Z,54.23
2023-04-15T11:45:20.102Z,54.26
2023-04-15T11:47:50.420Z,54.46
2023-04-15T11:50:26.486Z,54.54
2023-04-15T11:53:09.741Z,54.82
2023-04-15T11:55:51.947Z,54.73
2023-04-15T11:58:25.114Z,54.66
2023-04-15T12:00:58.024Z,55.10
2023-04-15T12:03:33.672Z,55.32
2023-04-15T12:06:18.895Z,55.24
2023-04-15T12:08:58.187Z,55.51
2023-04-15T12:11:35.319Z,55.46
2023-04-15T12:14:27.167Z,55.60
2023-04-15T12:17:01.163Z,55.52
2023-04-15T12:19:33.963Z,55.46
2023-04-15T12:22:24.630Z,55.63
2023-04-15T12:24:59.817Z,55.58
2023-04-15T12:27:30.737Z,55.63
2023-04-15T12:30:08.490Z,56.14
2023-04-15T12:32:40.452Z,56.09
2023-04-15T12:35:12.487Z,56.25
2023-04-15T12:37:42.964Z,56.20
2023-04-15T12:40:13.706Z,56.35
2023-04-15T12:42:44.296Z,56.41
2023-04-15T12:45:14.445Z,56.26
2023-04-15T12:47:44.693Z,56.57
2023-04-15T12:50:15.043Z,56.49
2023-04-15T12:52:45.244Z,56.52
2023-04-15T12:55:15.563Z,56.69
2023-04-15T12:57:46.091Z,56.20
2023-04-15T13:00:17.009Z,56.43
2023-04-15T13:02:47.559Z,56.54
2023-04-15T13:05:18.317Z,56.36
2023-04-15T13:07:48.767Z,56.40
2023-04-15T13:10:19.135Z,56.58
2023-04-15T13:12:51.848Z,56.45
2023-04-15T13:15:25.754Z,56.46
2023-04-15T13:17:56.377Z,56.59
2023-04-15T13:20:29.408Z,56.81
2023-04-15T13:22:59.777Z,56.81
2023-04-15T13:25:30.372Z,56.96
2023-04-15T13:28:01.143Z,57.14
2023-04-15T13:30:31.536Z,57.41
2023-04-15T13:33:02.390Z,57.51
2023-04-15T13:35:32.904Z,57.37
2023-04-15T13:38:03.394Z,57.52
2023-04-15T13:40:33.952Z,57.33
2023-04-15T13:43:04.576Z,57.23
2023-04-15T13:45:35.148Z,57.13
2023-04-15T13:48:05.591Z,57.06
2023-04-15T13:50:36.049Z,57.55
2023-04-15T13:53:06.484Z,57.77
2023-04-15T13:55:37.987Z,57.75
2023-04-15T13:58:08.467Z,57.70
2023-04-15T14:00:38.897Z,58.25
2023-04-15T14:03:09.456Z,58.41
2023-04-15T14:05:40.588Z,59.39
2023-04-15T14:08:10.819Z,59.85
2023-04-15T14:10:41.400Z,60.43
2023-04-15T14:13:11.619Z,61.21
2023-04-15T14:15:41.973Z,61.80
2023-04-15T14:18:12.328Z,62.04
2023-04-15T14:20:42.707Z,62.23
2023-04-15T14:23:13.396Z,62.32
2023-04-15T14:25:44.692Z,61.96
2023-04-15T14:28:16.597Z,62.27
2023-04-15T14:30:46.832Z,62.15
2023-04-15T14:33:17.142Z,61.81
2023-04-15T14:35:47.522Z,61.73
2023-04-15T14:38:17.900Z,61.43
2023-04-15T14:40:48.295Z,60.53
2023-04-15T14:43:19.497Z,60.45
2023-04-15T14:45:50.215Z,60.03
2023-04-15T14:48:20.560Z,60.17
2023-04-15T14:50:50.982Z,59.85
2023-04-15T14:53:21.530Z,59.91
2023-04-15T14:55:52.080Z,59.91
2023-04-15T14:58:22.201Z,59.56
2023-04-15T15:00:52.574Z,59.75
2023-04-15T15:03:23.190Z,59.80
2023-04-15T15:05:53.518Z,59.75
2023-04-15T15:08:23.931Z,59.92
2023-04-15T15:10:54.273Z,59.99
2023-04-15T15:13:24.511Z,60.02
2023-04-15T15:15:54.845Z,60.26
2023-04-15T15:18:27.846Z,60.11
2023-04-15T15:20:58.242Z,60.34
2023-04-15T15:23:28.558Z,60.25
2023-04-15T15:25:59.033Z,60.56
2023-04-15T15:28:29.717Z,60.24
2023-04-15T15:31:00.029Z,60.36
2023-04-15T15:33:30.472Z,60.59
2023-04-15T15:36:01.171Z,60.55
2023-04-15T15:38:31.583Z,60.74
2023-04-15T15:41:02.061Z,60.64
2023-04-15T15:43:32.320Z,62.12
2023-04-15T15:46:03.814Z,62.01
2023-04-15T15:49:05.199Z,62.21
2023-04-15T15:51:35.896Z,62.02
2023-04-15T15:54:09.266Z,62.01
2023-04-15T15:56:40.894Z,62.21
2023-04-15T15:59:11.166Z,61.87
2023-04-15T16:01:41.323Z,62.00
2023-04-15T16:04:12.752Z,62.31
2023-04-15T16:06:44.070Z,62.35
2023-04-15T16:09:13.935Z,62.44
2023-04-15T16:11:44.545Z,62.41
2023-04-15T16:14:16.457Z,62.63
2023-04-15T16:16:46.910Z,62.93
2023-04-15T16:19:17.860Z,62.91
2023-04-15T16:21:48.289Z,63.23
2023-04-15T16:24:22.227Z,63.02
2023-04-15T16:26:52.461Z,63.11
2023-04-15T16:29:22.904Z,63.30
2023-04-15T16:31:53.474Z,63.43
2023-04-15T16:34:23.840Z,63.78
2023-04-15T16:36:54.219Z,63.45
2023-04-15T16:39:26.429Z,63.09
2023-04-15T16:41:56.706Z,63.27
2023-04-15T16:44:28.253Z,63.73
2023-04-15T16:46:59.119Z,63.69
2023-04-15T16:49:29.238Z,64.04
2023-04-15T16:52:00.388Z,63.74
2023-04-15T16:54:32.156Z,63.87
2023-04-15T16:57:02.479Z,64.04
2023-04-15T16:59:32.796Z,64.20
2023-04-15T17:02:03.217Z,64.59
2023-04-15T17:04:33.648Z,64.46
2023-04-15T17:07:03.946Z,64.39
2023-04-15T17:09:34.658Z,64.37
2023-04-15T17:12:06.479Z,64.58
2023-04-15T17:14:37.498Z,64.56
2023-04-15T17:17:08.612Z,64.53
2023-04-15T17:19:38.563Z,64.72
2023-04-15T17:22:09.718Z,64.81
2023-04-15T17:24:39.977Z,64.69
2023-04-15T17:27:10.112Z,64.63
2023-04-15T17:29:40.277Z,64.83
2023-04-15T17:32:10.562Z,64.78
2023-04-15T17:34:49.757Z,65.30
2023-04-15T17:37:21.546Z,65.25
2023-04-15T17:39:51.789Z,65.33
2023-04-15T17:42:22.122Z,65.13
2023-04-15T17:44:52.500Z,65.49
2023-04-15T17:47:23.205Z,65.30
2023-04-15T17:49:53.575Z,65.16
2023-04-15T17:52:23.813Z,65.29
2023-04-15T17:54:54.097Z,65.29
2023-04-15T17:57:24.335Z,65.23
2023-04-15T17:59:54.554Z,65.38
2023-04-15T18:02:24.930Z,65.66
2023-04-15T18:04:55.418Z,65.76
2023-04-15T18:07:25.772Z,65.86
2023-04-15T18:09:58.288Z,65.67
2023-04-15T18:12:28.459Z,65.60
2023-04-15T18:14:58.704Z,65.96
2023-04-15T18:17:29.942Z,65.85
2023-04-15T18:20:00.231Z,65.91
2023-04-15T18:22:30.573Z,65.95
2023-04-15T18:25:06.390Z,65.82
2023-04-15T18:27:38.225Z,66.05
2023-04-15T18:30:11.452Z,65.95
2023-04-15T18:32:45.182Z,66.19
2023-04-15T18:35:35.914Z,66.21
2023-04-15T18:38:06.289Z,65.93
2023-04-15T18:40:36.575Z,66.12
2023-04-15T18:43:06.912Z,66.16
2023-04-15T18:45:37.297Z,66.20
2023-04-15T18:48:07.898Z,66.09
2023-04-15T18:50:38.343Z,66.49
2023-04-15T18:53:08.615Z,66.46
2023-04-15T18:55:38.972Z,66.21
2023-04-15T18:58:10.268Z,66.32
2023-04-15T19:00:44.080Z,66.82
2023-04-15T19:03:14.502Z,66.64
2023-04-15T19:05:44.797Z,66.65
2023-04-15T19:08:15.258Z,66.60
2023-04-15T19:10:46.201Z,66.77
2023-04-15T19:13:18.352Z,66.94
2023-04-15T19:15:49.621Z,66.81
2023-04-15T19:18:19.883Z,66.99
2023-04-15T19:20:57.396Z,66.88
2023-04-15T19:23:42.110Z,67.16
2023-04-15T19:26:12.781Z,67.09
2023-04-15T19:28:42.955Z,66.97
2023-04-15T19:31:13.197Z,66.97
2023-04-15T19:33:49.369Z,67.08
2023-04-15T19:36:20.612Z,67.06
2023-04-15T19:38:50.570Z,67.09
2023-04-15T19:41:20.675Z,66.97
2023-04-15T19:43:50.946Z,67.25
2023-04-15T19:46:21.223Z,67.47
2023-04-15T19:48:51.664Z,67.35
2023-04-15T19:51:22.038Z,67.28
2023-04-15T19:53:52.355Z,67.38
2023-04-15T19:56:23.147Z,67.48
2023-04-15T19:58:55.417Z,67.50
2023-04-15T20:01:25.925Z,67.70
2023-04-15T20:03:56.985Z,67.84
2023-04-15T20:06:29.180Z,67.74
2023-04-15T20:08:59.617Z,67.57
2023-04-15T20:12:09.659Z,67.63
2023-04-15T20:14:24.144Z,67.68
2023-04-15T20:16:54.446Z,68.02
2023-04-15T20:19:24.763Z,67.67
2023-04-15T20:21:56.361Z,67.77
2023-04-15T20:24:26.813Z,68.01
2023-04-15T20:26:57.120Z,68.00
2023-04-15T20:29:27.526Z,67.95
2023-04-15T20:31:58.695Z,67.96
2023-04-15T20:34:28.651Z,68.06
2023-04-15T20:36:59.326Z,68.13
2023-04-15T20:39:29.815Z,67.86
2023-04-15T20:42:00.143Z,68.14
2023-04-15T20:44:30.836Z,68.36
2023-04-15T20:47:01.656Z,67.88
2023-04-15T20:49:39.022Z,68.37
2023-04-15T20:52:10.539Z,67.95
2023-04-15T20:54:40.742Z,67.91
2023-04-15T20:57:11.076Z,67.61
2023-04-15T20:59:41.383Z,67.83
2023-04-15T21:02:11.930Z,67.68
2023-04-15T21:04:42.169Z,67.90
2023-04-15T21:07:12.859Z,67.63
2023-04-15T21:09:43.871Z,67.23
2023-04-15T21:12:14.274Z,66.92
2023-04-15T21:14:44.503Z,66.70
2023-04-15T21:17:14.808Z,66.53
2023-04-15T21:19:45.766Z,66.01
2023-04-15T21:22:15.855Z,65.94
2023-04-15T21:24:46.147Z,65.92
2023-04-15T21:27:16.461Z,66.02
2023-04-15T21:29:46.615Z,65.86
2023-04-15T21:32:16.830Z,65.75
2023-04-15T21:34:47.298Z,65.87
2023-04-15T21:37:17.741Z,65.61
2023-04-15T21:39:48.088Z,65.62
2023-04-15T21:42:18.432Z,65.74
2023-04-15T21:44:48.810Z,65.16
2023-04-15T21:47:19.110Z,65.51
2023-04-15T21:49:49.566Z,65.45
2023-04-15T21:52:20.107Z,65.18
2023-04-15T21:54:50.473Z,65.24
2023-04-15T21:57:20.520Z,65.20
2023-04-15T21:59:50.607Z,64.90
2023-04-15T22:02:20.837Z,65.08
2023-04-15T22:04:51.224Z,65.11
2023-04-15T22:07:21.612Z,65.13
2023-04-15T22:09:51.913Z,65.04
2023-04-15T22:12:22.005Z,65.11
2023-04-15T22:14:52.428Z,64.90
2023-04-15T22:17:22.809Z,64.79
2023-04-15T22:19:53.067Z,64.73
2023-04-15T22:22:27.413Z,64.93
2023-04-15T22:25:14.473Z,64.89
2023-04-15T22:27:44.861Z,64.70
2023-04-15T22:30:15.647Z,64.92
2023-04-15T22:32:46.400Z,64.84
2023-04-15T22:35:16.817Z,64.89
2023-04-15T22:37:47.069Z,64.89
2023-04-15T22:40:17.329Z,64.93
2023-04-15T22:42:48.657Z,64.96
2023-04-15T22:45:19.059Z,64.78
2023-04-15T22:47:49.391Z,64.81
2023-04-15T22:50:19.720Z,65.08
2023-04-15T22:52:50.649Z,64.81
2023-04-15T22:55:20.990Z,65.01
2023-04-15T22:57:51.173Z,64.82
2023-04-15T23:00:21.249Z,64.58
2023-04-15T23:02:52.070Z,64.76
2023-04-15T23:05:22.655Z,64.66
2023-04-15T23:07:53.134Z,64.72
2023-04-15T23:10:23.622Z,64.91
2023-04-15T23:12:54.040Z,64.86
2023-04-15T23:15:24.461Z,64.95
2023-04-15T23:17:54.847Z,64.63
2023-04-15T23:20:25.145Z,64.62
2023-04-15T23:22:55.508Z,64.64
2023-04-15T23:25:25.927Z,64.62
2023-04-15T23:27:56.644Z,64.57
2023-04-15T23:30:26.946Z,64.46
2023-04-15T23:32:57.507Z,64.54
2023-04-15T23:35:29.645Z,64.58
2023-04-15T23:37:59.941Z,64.62
2023-04-15T23:40:30.148Z,64.63
2023-04-15T23:43:00.747Z,64.77
2023-04-15T23:45:31.706Z,64.73
2023-04-15T23:48:02.052Z,64.69
2023-04-15T23:50:32.407Z,64.87
2023-04-15T23:53:02.885Z,64.57
2023-04-15T23:55:34.230Z,64.78
2023-04-15T23:58:04.941Z,64.46
